Airfield :
LOGIN :

Register | Disclaimer

   EN    FR    IT 

 










Legend :    VFR   Marginal VFR   IFR   Intensive IFR   Very Intensive IFR
Visi :
Ceiling :
>= 8 km
>= 3000ft
5 to 8 km
1000 to 3000 ft
1500m to 5 km
500 to 1000 ft
800 to 1500m
200 to 500 ft
< 800m
< 200 ft
Symbols :   Thunderstorms  Fog  Heavy snow  Heavy precipitations  Wind > 20 kt
SIGMETs :     Misc.  Thunderstorms  Icing  Turbulence  Mountain Waves  Volcanic Ashes







- Airport Elevation : 495 ft
- IATA code : BUD


LHBP - Budapest Ferihegy

CURRENT METAR :
  • 120700Z 34005KT 310V040 CAVOK M01/M01 Q1016 NOSIG

EXPIRED METARs :
  • 120630Z 30008KT CAVOK M01/M02 Q1016 NOSIG
  • 120600Z 31008KT CAVOK M00/M01 Q1016 NOSIG
  • 120530Z 30009KT CAVOK M00/M01 Q1016 NOSIG
  • 120500Z 30009KT CAVOK M00/M01 Q1015 NOSIG
  • 120430Z 29007KT CAVOK 00/M01 Q1015 NOSIG

TAF TAF LHBP
Valid from the 12 at 06:00 until the 13 at 06:00 UTC


120515Z 1206/1306 31006KT CAVOK
BECMG 1210/1212 BKN018 BKN040
TEMPO 1215/1218 -SN -SNRA
BECMG 1216/1218 VRB03KT 7000 NSC
BECMG 1220/1222 4000 BR
No reported NOTAMs for that airfield.



MET'MAP, your aeronautical weather chart ! - Copyright ORBIFLY December 2007 - Disclaimer

ORBIFLY MET'MAP TEAM :

Programming & Development : Alexandra Zaïnal
Concept & Development : Baudouin d'Aumeries
Co-Development & Prog : Marc-Olivier Méhu
Technical & hardware support : Manuel Goepfert

Contact : metmap@orbifly.com




SOURCES & CREDITS :

   NOAA